Time;durP1;ratioP1;P1;durP2;ratioP2;P2;SDS_P1;SDS_P2;PMS_P1;PMS_P2;Temp;Humidity;BMP_temperature;BMP_pressure;BME280_temperature;BME280_humidity;BME280_pressure;Samples;Min_cycle;Max_cycle;Signal;HPM_P1;HPM_P2
2022/09/18 00:00:38;;;;;;;;;;;10.40;99.90;;;;;;5074463;28;20357;-74
2022/09/18 00:03:03;;;;;;;;;;;10.40;99.90;;;;;;5076123;28;19909;-75
2022/09/18 00:05:29;;;;;;;;;;;10.40;99.90;;;;;;5075894;28;19915;-75
2022/09/18 00:07:54;;;;;;;;;;;10.40;99.90;;;;;;5075529;28;20358;-74
2022/09/18 00:10:20;;;;;;;;;;;10.40;99.90;;;;;;5075817;28;19916;-75
2022/09/18 00:12:46;;;;;;;;;;;10.40;99.90;;;;;;5074222;28;19908;-75
2022/09/18 00:15:11;;;;;;;;;;;10.40;99.90;;;;;;5075812;28;19913;-74
2022/09/18 00:17:37;;;;;;;;;;;10.40;99.90;;;;;;5074978;28;19956;-74
2022/09/18 00:20:03;;;;;;;;;;;10.50;99.90;;;;;;5075903;28;19908;-74
2022/09/18 00:22:29;;;;;;;;;;;10.40;99.90;;;;;;5075855;28;20419;-75
2022/09/18 00:24:54;;;;;;;;;;;10.50;99.90;;;;;;5075235;28;19920;-74
2022/09/18 00:27:20;;;;;;;;;;;10.50;99.90;;;;;;5075372;28;19948;-74
2022/09/18 00:29:46;;;;;;;;;;;10.60;99.90;;;;;;5075095;28;19908;-74
2022/09/18 00:32:11;;;;;;;;;;;10.60;99.90;;;;;;5075642;28;19916;-75
2022/09/18 00:34:38;;;;;;;;;;;10.60;99.90;;;;;;5074921;28;19913;-74
2022/09/18 00:37:04;;;;;;;;;;;10.60;99.90;;;;;;5075511;28;19999;-74
2022/09/18 00:39:29;;;;;;;;;;;10.50;99.90;;;;;;5075384;28;20352;-75
2022/09/18 00:41:55;;;;;;;;;;;10.50;99.90;;;;;;5074695;28;20581;-74
2022/09/18 00:44:32;;;;;;;;;;;10.60;99.90;;;;;;5073734;28;19944;-74
2022/09/18 00:47:02;;;;;;;;;;;10.70;99.90;;;;;;5074901;28;19933;-74
2022/09/18 00:49:28;;;;;;;;;;;10.60;99.90;;;;;;5075108;28;20281;-74
2022/09/18 00:51:56;;;;;;;;;;;10.60;99.90;;;;;;5074766;28;20368;-75
2022/09/18 00:54:27;;;;;;;;;;;10.60;99.90;;;;;;5075278;28;19912;-76
2022/09/18 00:56:56;;;;;;;;;;;10.70;99.90;;;;;;5073417;28;19912;-75
2022/09/18 00:59:24;;;;;;;;;;;10.70;99.90;;;;;;5075433;28;20383;-75
2022/09/18 01:01:50;;;;;;;;;;;10.70;99.90;;;;;;5073967;28;20004;-75
2022/09/18 01:04:15;;;;;;;;;;;10.70;99.90;;;;;;5074457;28;19966;-75
2022/09/18 01:06:41;;;;;;;;;;;10.70;99.90;;;;;;5074180;28;19918;-75
2022/09/18 01:09:13;;;;;;;;;;;10.70;99.90;;;;;;5074738;28;20006;-74
2022/09/18 01:12:04;;;;;;;;;;;10.80;99.90;;;;;;5074623;28;20293;-74
2022/09/18 01:14:42;;;;;;;;;;;10.80;99.90;;;;;;5074940;28;20346;-75
2022/09/18 01:17:08;;;;;;;;;;;10.80;99.90;;;;;;5075038;28;19919;-75
2022/09/18 01:20:00;;;;;;;;;;;10.80;99.90;;;;;;5074554;28;19909;-75
2022/09/18 01:22:47;;;;;;;;;;;10.90;99.90;;;;;;5055555;28;19999;-74
2022/09/18 01:25:20;;;;;;;;;;;10.90;99.90;;;;;;5073482;28;19913;-74
2022/09/18 01:27:53;;;;;;;;;;;10.90;99.90;;;;;;5073967;28;20350;-74
2022/09/18 01:30:18;;;;;;;;;;;10.90;99.90;;;;;;5075206;28;19915;-74
2022/09/18 01:32:54;;;;;;;;;;;11.00;99.90;;;;;;5073883;28;19979;-74
2022/09/18 01:35:19;;;;;;;;;;;10.90;99.90;;;;;;5074469;28;19912;-74
2022/09/18 01:37:57;;;;;;;;;;;10.90;99.90;;;;;;5073898;28;19916;-74
2022/09/18 01:40:25;;;;;;;;;;;11.00;99.90;;;;;;5074196;28;19909;-76
2022/09/18 01:42:52;;;;;;;;;;;11.00;99.90;;;;;;5072577;28;20269;-74
2022/09/18 01:45:20;;;;;;;;;;;11.00;99.90;;;;;;5074117;28;19921;-74
2022/09/18 01:47:58;;;;;;;;;;;11.00;99.90;;;;;;5073330;28;19935;-74
2022/09/18 01:50:28;;;;;;;;;;;11.00;99.90;;;;;;5073680;28;19908;-74
2022/09/18 01:52:58;;;;;;;;;;;11.00;99.90;;;;;;5072447;28;19913;-74
2022/09/18 01:55:25;;;;;;;;;;;11.00;99.90;;;;;;5073992;28;19951;-74
2022/09/18 01:57:51;;;;;;;;;;;11.00;99.90;;;;;;5073349;28;19908;-74
2022/09/18 02:00:17;;;;;;;;;;;11.00;99.90;;;;;;5073994;28;19962;-74
2022/09/18 02:02:46;;;;;;;;;;;10.90;99.90;;;;;;5073505;28;20312;-74
2022/09/18 02:05:19;;;;;;;;;;;11.00;99.90;;;;;;5073969;28;19908;-74
2022/09/18 02:07:47;;;;;;;;;;;11.00;99.90;;;;;;5073377;28;19913;-74
2022/09/18 02:10:13;;;;;;;;;;;11.00;99.90;;;;;;5073494;28;19934;-75
2022/09/18 02:12:39;;;;;;;;;;;11.00;99.90;;;;;;5073527;28;19908;-74
2022/09/18 02:15:08;;;;;;;;;;;11.00;99.90;;;;;;5072553;28;19916;-74
2022/09/18 02:17:46;;;;;;;;;;;11.00;99.90;;;;;;5073693;28;19917;-75
2022/09/18 02:20:19;;;;;;;;;;;11.00;99.90;;;;;;5073540;28;20311;-74
2022/09/18 02:22:46;;;;;;;;;;;11.00;99.90;;;;;;5073095;28;20368;-74
2022/09/18 02:25:13;;;;;;;;;;;11.00;99.90;;;;;;5073512;28;19908;-74
2022/09/18 02:27:40;;;;;;;;;;;11.00;99.90;;;;;;5072156;28;19908;-74
2022/09/18 02:30:07;;;;;;;;;;;11.00;99.90;;;;;;5072716;28;19912;-74
2022/09/18 02:32:34;;;;;;;;;;;11.00;99.90;;;;;;5073312;28;19908;-74
2022/09/18 02:35:00;;;;;;;;;;;11.00;99.90;;;;;;5072751;28;19919;-75
2022/09/18 02:37:35;;;;;;;;;;;11.00;99.90;;;;;;5072286;28;19917;-74
2022/09/18 02:40:15;;;;;;;;;;;10.90;99.90;;;;;;5072715;28;19908;-74
2022/09/18 02:42:41;;;;;;;;;;;10.90;99.90;;;;;;5073235;28;19908;-74
2022/09/18 02:45:25;;;;;;;;;;;10.90;99.90;;;;;;5072456;28;19927;-74
2022/09/18 02:48:03;;;;;;;;;;;10.90;99.90;;;;;;5072610;28;19909;-74
2022/09/18 02:50:43;;;;;;;;;;;10.80;99.90;;;;;;5072975;28;19962;-74
2022/09/18 02:53:15;;;;;;;;;;;10.90;99.90;;;;;;5072701;28;19909;-74
2022/09/18 02:55:44;;;;;;;;;;;10.80;99.90;;;;;;5072953;28;19944;-74
2022/09/18 02:58:28;;;;;;;;;;;10.80;99.90;;;;;;5072696;28;19916;-74
2022/09/18 03:00:54;;;;;;;;;;;10.80;99.90;;;;;;5072233;28;19995;-74
2022/09/18 03:03:25;;;;;;;;;;;10.80;99.90;;;;;;5072652;28;20262;-74
2022/09/18 03:05:50;;;;;;;;;;;10.80;99.90;;;;;;5072518;28;19912;-74
2022/09/18 03:08:18;;;;;;;;;;;10.80;99.90;;;;;;5073069;28;20353;-74
2022/09/18 03:10:44;;;;;;;;;;;10.80;99.90;;;;;;5072783;28;20011;-75
2022/09/18 03:13:10;;;;;;;;;;;10.80;99.90;;;;;;5072262;28;19940;-74
2022/09/18 03:15:35;;;;;;;;;;;10.80;99.90;;;;;;5073158;28;19938;-74
2022/09/18 03:18:01;;;;;;;;;;;10.90;99.90;;;;;;5072257;28;20269;-74
2022/09/18 03:20:26;;;;;;;;;;;10.90;99.90;;;;;;5072646;28;20011;-75
2022/09/18 03:22:52;;;;;;;;;;;10.90;99.90;;;;;;5072035;28;20277;-73
2022/09/18 03:25:17;;;;;;;;;;;10.90;99.90;;;;;;5073193;28;19962;-75
2022/09/18 03:27:43;;;;;;;;;;;10.90;99.90;;;;;;5076989;28;19909;-73
2022/09/18 03:30:09;;;;;;;;;;;10.90;99.90;;;;;;5075934;28;19920;-74
2022/09/18 03:32:34;;;;;;;;;;;10.90;99.90;;;;;;5076867;28;20250;-74
2022/09/18 03:35:00;;;;;;;;;;;10.90;99.90;;;;;;5076187;28;19916;-74
2022/09/18 03:37:25;;;;;;;;;;;10.90;99.90;;;;;;5076853;28;20078;-73
2022/09/18 03:39:51;;;;;;;;;;;10.90;99.90;;;;;;5075947;28;19913;-73
2022/09/18 03:42:17;;;;;;;;;;;10.90;99.90;;;;;;5076932;28;19909;-74
2022/09/18 03:44:42;;;;;;;;;;;10.90;99.90;;;;;;5075029;28;19921;-73
2022/09/18 03:47:08;;;;;;;;;;;10.90;99.90;;;;;;5074775;28;19910;-74
2022/09/18 03:49:34;;;;;;;;;;;10.90;99.90;;;;;;5075248;28;19913;-74
2022/09/18 03:52:00;;;;;;;;;;;10.90;99.90;;;;;;5075608;28;20369;-74
2022/09/18 03:54:25;;;;;;;;;;;10.90;99.90;;;;;;5075075;28;19965;-74
2022/09/18 03:56:51;;;;;;;;;;;10.90;99.90;;;;;;5075795;28;19912;-74
2022/09/18 03:59:16;;;;;;;;;;;10.90;99.90;;;;;;5075362;28;19915;-74
2022/09/18 04:01:42;;;;;;;;;;;10.90;99.90;;;;;;5076177;28;19908;-73
2022/09/18 04:04:08;;;;;;;;;;;10.90;99.90;;;;;;5075708;28;19912;-74
2022/09/18 04:06:33;;;;;;;;;;;10.90;99.90;;;;;;5076597;28;19909;-74
2022/09/18 04:08:59;;;;;;;;;;;10.90;99.90;;;;;;5075621;28;19995;-74
2022/09/18 04:11:24;;;;;;;;;;;10.90;99.90;;;;;;5075846;28;20358;-75
2022/09/18 04:13:50;;;;;;;;;;;10.90;99.90;;;;;;5075782;28;19912;-74
2022/09/18 04:16:16;;;;;;;;;;;10.90;99.90;;;;;;5075454;28;19916;-74
2022/09/18 04:18:41;;;;;;;;;;;10.90;99.90;;;;;;5075932;28;19908;-74
2022/09/18 04:21:07;;;;;;;;;;;10.90;99.90;;;;;;5075254;28;20340;-74
2022/09/18 04:23:32;;;;;;;;;;;10.90;99.90;;;;;;5075945;28;19908;-74
2022/09/18 04:25:58;;;;;;;;;;;10.90;99.90;;;;;;5075032;28;19921;-73
2022/09/18 04:28:23;;;;;;;;;;;10.90;99.90;;;;;;5075785;28;19959;-74
2022/09/18 04:30:49;;;;;;;;;;;10.80;99.90;;;;;;5074479;28;19915;-75
2022/09/18 04:33:14;;;;;;;;;;;10.80;99.90;;;;;;5075384;28;20129;-74
2022/09/18 04:35:40;;;;;;;;;;;10.80;99.90;;;;;;5075668;28;19935;-75
2022/09/18 04:38:07;;;;;;;;;;;10.70;99.90;;;;;;5074955;28;19915;-74
2022/09/18 04:40:33;;;;;;;;;;;10.70;99.90;;;;;;5074943;28;19930;-74
2022/09/18 04:42:59;;;;;;;;;;;10.70;99.90;;;;;;5074969;28;19908;-74
2022/09/18 04:45:24;;;;;;;;;;;10.70;99.90;;;;;;5075266;28;20374;-74
2022/09/18 04:47:50;;;;;;;;;;;10.70;99.90;;;;;;5075143;28;19908;-74
2022/09/18 04:50:16;;;;;;;;;;;10.70;99.90;;;;;;5074847;28;19970;-74
2022/09/18 04:52:43;;;;;;;;;;;10.70;99.90;;;;;;5074394;28;20159;-74
2022/09/18 04:55:09;;;;;;;;;;;10.70;99.90;;;;;;5074393;28;20270;-74
2022/09/18 04:57:34;;;;;;;;;;;10.60;99.90;;;;;;5075213;28;19913;-74
2022/09/18 05:00:00;;;;;;;;;;;10.60;99.90;;;;;;5074929;28;19962;-74
2022/09/18 05:02:26;;;;;;;;;;;10.60;99.90;;;;;;5073756;28;19915;-75
2022/09/18 05:04:51;;;;;;;;;;;10.60;99.90;;;;;;5073867;28;19931;-75
2022/09/18 05:07:17;;;;;;;;;;;10.60;99.90;;;;;;5073263;28;19966;-75
2022/09/18 05:09:43;;;;;;;;;;;10.60;99.90;;;;;;5074714;28;19908;-74
2022/09/18 05:12:08;;;;;;;;;;;10.50;99.90;;;;;;5074419;28;19948;-74
2022/09/18 05:14:34;;;;;;;;;;;10.50;99.90;;;;;;5074806;28;19913;-75
2022/09/18 05:17:00;;;;;;;;;;;10.50;99.90;;;;;;5074323;28;20338;-74
2022/09/18 05:19:26;;;;;;;;;;;10.50;99.90;;;;;;5074672;28;19917;-74
2022/09/18 05:21:52;;;;;;;;;;;10.60;99.90;;;;;;5074707;28;19950;-74
2022/09/18 05:24:17;;;;;;;;;;;10.50;99.90;;;;;;5074215;28;19908;-74
2022/09/18 05:26:43;;;;;;;;;;;10.60;99.90;;;;;;5074519;28;20018;-75
2022/09/18 05:29:09;;;;;;;;;;;10.60;99.90;;;;;;5073812;28;19932;-74
2022/09/18 05:31:35;;;;;;;;;;;10.60;99.90;;;;;;5074526;28;20007;-73
2022/09/18 05:34:00;;;;;;;;;;;10.60;99.90;;;;;;5073810;28;19912;-74
2022/09/18 05:36:26;;;;;;;;;;;10.50;99.90;;;;;;5074545;28;19912;-74
2022/09/18 05:38:51;;;;;;;;;;;10.50;99.90;;;;;;5074536;28;20324;-74
2022/09/18 05:41:17;;;;;;;;;;;10.40;99.90;;;;;;5073750;28;19951;-74
2022/09/18 05:43:43;;;;;;;;;;;10.40;99.90;;;;;;5074099;28;19908;-74
2022/09/18 05:46:09;;;;;;;;;;;10.30;99.90;;;;;;5073967;28;19921;-74
2022/09/18 05:48:35;;;;;;;;;;;10.20;99.90;;;;;;5073680;28;19995;-74
2022/09/18 05:51:00;;;;;;;;;;;10.20;99.90;;;;;;5073541;28;20307;-74
2022/09/18 05:53:26;;;;;;;;;;;10.10;99.90;;;;;;5073967;28;19963;-74
2022/09/18 05:55:51;;;;;;;;;;;10.00;99.90;;;;;;5074131;28;19912;-74
2022/09/18 05:58:18;;;;;;;;;;;9.90;99.90;;;;;;5073349;28;19913;-72
2022/09/18 06:00:44;;;;;;;;;;;9.80;99.90;;;;;;5073997;28;19908;-74
2022/09/18 06:03:10;;;;;;;;;;;9.80;99.90;;;;;;5073174;28;20407;-73
2022/09/18 06:05:36;;;;;;;;;;;9.70;99.90;;;;;;5072495;28;19912;-73
2022/09/18 06:08:06;;;;;;;;;;;9.70;99.90;;;;;;5073177;28;19909;-73
2022/09/18 06:10:32;;;;;;;;;;;9.70;99.90;;;;;;5072534;28;20045;-73
2022/09/18 06:13:08;;;;;;;;;;;9.60;99.90;;;;;;5073980;28;19908;-74
2022/09/18 06:15:35;;;;;;;;;;;9.60;99.90;;;;;;5073360;28;19923;-74
2022/09/18 06:18:00;;;;;;;;;;;9.50;99.90;;;;;;5072924;28;20341;-74
2022/09/18 06:20:26;;;;;;;;;;;9.50;99.90;;;;;;5073345;28;20007;-75
2022/09/18 06:22:52;;;;;;;;;;;9.50;99.90;;;;;;5073168;28;19909;-73
2022/09/18 06:25:20;;;;;;;;;;;9.50;99.90;;;;;;5073041;28;19909;-74
2022/09/18 06:27:46;;;;;;;;;;;9.50;99.90;;;;;;5073611;28;19912;-74
2022/09/18 06:30:12;;;;;;;;;;;9.50;99.90;;;;;;5072567;28;20365;-74
2022/09/18 06:32:38;;;;;;;;;;;9.60;99.90;;;;;;5073310;28;19916;-74
2022/09/18 06:35:03;;;;;;;;;;;9.60;99.90;;;;;;5072857;28;20389;-76
2022/09/18 06:37:29;;;;;;;;;;;9.60;99.90;;;;;;5073328;28;19966;-76
2022/09/18 06:39:55;;;;;;;;;;;9.70;99.90;;;;;;5071989;28;20471;-76
2022/09/18 06:42:20;;;;;;;;;;;9.80;99.90;;;;;;5071441;28;19919;-75
2022/09/18 06:44:46;;;;;;;;;;;9.80;99.90;;;;;;5072884;28;19920;-75
2022/09/18 06:47:11;;;;;;;;;;;9.90;99.90;;;;;;5072838;28;19915;-75
2022/09/18 06:49:37;;;;;;;;;;;10.00;99.90;;;;;;5072994;28;19961;-75
2022/09/18 06:52:03;;;;;;;;;;;10.10;99.90;;;;;;5072918;28;19908;-75
2022/09/18 06:54:28;;;;;;;;;;;10.20;99.90;;;;;;5072854;28;20289;-74
2022/09/18 06:56:54;;;;;;;;;;;10.20;99.90;;;;;;5073118;28;19927;-75
2022/09/18 06:59:21;;;;;;;;;;;10.40;99.90;;;;;;5071209;28;20338;-75
2022/09/18 07:01:47;;;;;;;;;;;10.40;99.90;;;;;;5072195;28;19916;-73
2022/09/18 07:04:13;;;;;;;;;;;10.60;99.90;;;;;;5072405;28;19912;-74
2022/09/18 07:06:39;;;;;;;;;;;10.60;99.90;;;;;;5073314;28;19931;-74
2022/09/18 07:09:04;;;;;;;;;;;10.70;99.90;;;;;;5072425;28;20411;-73
2022/09/18 07:11:30;;;;;;;;;;;10.80;99.90;;;;;;5072960;28;20246;-74
2022/09/18 07:13:56;;;;;;;;;;;10.90;99.90;;;;;;5072939;28;19972;-73
2022/09/18 07:16:21;;;;;;;;;;;11.00;99.90;;;;;;5072360;28;19974;-73
2022/09/18 07:18:47;;;;;;;;;;;11.00;99.90;;;;;;5072967;28;19915;-75
2022/09/18 07:21:13;;;;;;;;;;;11.10;99.90;;;;;;5072329;28;19923;-76
2022/09/18 07:23:38;;;;;;;;;;;11.20;99.90;;;;;;5072727;28;19908;-74
2022/09/18 07:26:04;;;;;;;;;;;11.30;99.90;;;;;;5072443;28;19908;-74
2022/09/18 07:28:29;;;;;;;;;;;11.40;99.90;;;;;;5071032;28;20368;-74
2022/09/18 07:30:55;;;;;;;;;;;11.60;99.90;;;;;;5072721;28;20284;-74
2022/09/18 07:33:21;;;;;;;;;;;11.60;99.90;;;;;;5053730;28;20007;-74
2022/09/18 07:35:47;;;;;;;;;;;11.60;99.90;;;;;;5072480;28;19959;-73
2022/09/18 07:38:12;;;;;;;;;;;11.70;99.90;;;;;;5071522;28;19915;-74
2022/09/18 07:40:40;;;;;;;;;;;11.80;99.90;;;;;;5072549;28;20281;-74
2022/09/18 07:43:06;;;;;;;;;;;11.90;99.90;;;;;;5071052;28;20015;-74
2022/09/18 07:45:33;;;;;;;;;;;11.90;99.90;;;;;;5072267;28;19943;-74
2022/09/18 07:48:02;;;;;;;;;;;12.00;99.90;;;;;;5072015;28;19908;-74
2022/09/18 07:50:28;;;;;;;;;;;12.00;99.90;;;;;;5071618;28;19915;-73
2022/09/18 07:52:55;;;;;;;;;;;12.10;99.90;;;;;;5072428;28;19908;-74
2022/09/18 07:55:21;;;;;;;;;;;12.20;99.90;;;;;;5071734;28;19912;-74
2022/09/18 07:57:52;;;;;;;;;;;12.20;99.90;;;;;;5072468;28;19963;-75
2022/09/18 08:00:18;;;;;;;;;;;12.30;99.90;;;;;;5072242;28;19908;-73
2022/09/18 08:02:43;;;;;;;;;;;12.40;99.90;;;;;;5072331;28;19970;-73
2022/09/18 08:05:09;;;;;;;;;;;12.50;99.90;;;;;;5071653;28;20312;-74
2022/09/18 08:07:35;;;;;;;;;;;12.50;99.90;;;;;;5072366;28;19908;-74
2022/09/18 08:10:00;;;;;;;;;;;12.50;99.90;;;;;;5072337;28;19909;-74
2022/09/18 08:12:26;;;;;;;;;;;12.60;99.90;;;;;;5073502;28;19919;-74
2022/09/18 08:14:51;;;;;;;;;;;12.60;99.90;;;;;;5075741;28;19917;-74
2022/09/18 08:17:17;;;;;;;;;;;12.60;99.90;;;;;;5075413;28;20276;-74
2022/09/18 08:19:42;;;;;;;;;;;12.70;99.90;;;;;;5074622;28;19908;-74
2022/09/18 08:22:08;;;;;;;;;;;12.80;99.90;;;;;;5075499;28;19915;-74
2022/09/18 08:24:34;;;;;;;;;;;12.90;99.90;;;;;;5075987;28;19959;-74
2022/09/18 08:27:02;;;;;;;;;;;12.90;99.90;;;;;;5075328;28;19909;-74
2022/09/18 08:29:31;;;;;;;;;;;13.00;99.90;;;;;;5073881;28;19909;-74
2022/09/18 08:31:56;;;;;;;;;;;13.10;99.90;;;;;;5075666;28;19970;-74
2022/09/18 08:34:22;;;;;;;;;;;13.20;99.90;;;;;;5074940;28;20345;-74
2022/09/18 08:36:48;;;;;;;;;;;13.20;99.90;;;;;;5075359;28;19912;-74
2022/09/18 08:39:13;;;;;;;;;;;13.30;99.90;;;;;;5074935;28;19909;-74
2022/09/18 08:41:44;;;;;;;;;;;13.40;99.90;;;;;;5075175;28;20255;-74
2022/09/18 08:44:10;;;;;;;;;;;13.50;99.90;;;;;;5075067;28;19908;-74
2022/09/18 08:46:36;;;;;;;;;;;13.60;99.90;;;;;;5075328;28;19920;-74
2022/09/18 08:49:19;;;;;;;;;;;13.60;99.90;;;;;;5075391;28;20377;-74
2022/09/18 08:51:52;;;;;;;;;;;13.60;99.90;;;;;;5073783;28;19953;-74
2022/09/18 08:54:17;;;;;;;;;;;13.70;99.90;;;;;;5074205;28;19914;-74
2022/09/18 08:56:43;;;;;;;;;;;13.80;99.90;;;;;;5074791;28;19954;-74
2022/09/18 08:59:21;;;;;;;;;;;13.80;99.90;;;;;;5075173;28;19908;-74
2022/09/18 09:02:07;;;;;;;;;;;13.90;99.90;;;;;;5074941;28;20281;-74
2022/09/18 09:04:34;;;;;;;;;;;13.90;99.90;;;;;;5074530;28;20372;-74
2022/09/18 09:07:02;;;;;;;;;;;14.00;99.90;;;;;;5074942;28;19989;-75
2022/09/18 09:09:41;;;;;;;;;;;14.10;99.90;;;;;;5073075;28;19908;-74
2022/09/18 09:12:06;;;;;;;;;;;14.10;99.90;;;;;;5074633;28;19908;-74
2022/09/18 09:14:32;;;;;;;;;;;14.10;99.90;;;;;;5073920;28;19935;-74
2022/09/18 09:17:11;;;;;;;;;;;14.20;99.90;;;;;;5074800;28;20006;-74
2022/09/18 09:19:46;;;;;;;;;;;14.20;99.90;;;;;;5074769;28;19916;-74
2022/09/18 09:22:26;;;;;;;;;;;14.20;99.90;;;;;;5074860;28;19909;-74
2022/09/18 09:24:57;;;;;;;;;;;14.30;99.90;;;;;;5073993;28;19953;-75
2022/09/18 09:27:30;;;;;;;;;;;14.30;99.90;;;;;;5072711;28;19908;-75
2022/09/18 09:30:04;;;;;;;;;;;14.40;99.90;;;;;;5074162;28;20298;-75
2022/09/18 09:32:36;;;;;;;;;;;14.40;99.90;;;;;;5073846;28;20258;-75
2022/09/18 09:35:10;;;;;;;;;;;14.40;99.90;;;;;;5074092;28;20308;-75
2022/09/18 09:37:41;;;;;;;;;;;14.50;99.90;;;;;;5073591;28;19931;-75
2022/09/18 09:40:27;;;;;;;;;;;14.60;99.90;;;;;;5074299;28;19971;-73
2022/09/18 09:43:00;;;;;;;;;;;14.60;99.90;;;;;;5073840;28;19908;-74
2022/09/18 09:45:28;;;;;;;;;;;14.70;99.90;;;;;;5073179;28;20020;-75
2022/09/18 09:48:05;;;;;;;;;;;14.70;99.90;;;;;;5074267;28;19932;-74
2022/09/18 09:50:42;;;;;;;;;;;14.70;99.90;;;;;;5073617;28;19931;-74
2022/09/18 09:53:09;;;;;;;;;;;14.80;99.90;;;;;;5073873;28;20342;-74
2022/09/18 09:55:55;;;;;;;;;;;14.80;99.90;;;;;;5073268;28;19909;-75
2022/09/18 09:58:39;;;;;;;;;;;14.90;99.90;;;;;;5051554;28;20415;-75
2022/09/18 10:01:13;;;;;;;;;;;15.00;99.90;;;;;;5073248;28;19909;-74
2022/09/18 10:03:39;;;;;;;;;;;15.10;99.90;;;;;;5073287;28;19916;-74
2022/09/18 10:06:10;;;;;;;;;;;15.10;99.90;;;;;;5073408;28;20331;-75
2022/09/18 10:08:43;;;;;;;;;;;15.20;99.90;;;;;;5073088;28;20003;-73
2022/09/18 10:11:10;;;;;;;;;;;15.20;99.90;;;;;;5072084;28;19952;-74
2022/09/18 10:13:38;;;;;;;;;;;15.20;99.90;;;;;;5073018;28;19955;-74
2022/09/18 10:16:32;;;;;;;;;;;15.20;99.90;;;;;;5073386;28;19912;-74
2022/09/18 10:18:58;;;;;;;;;;;15.20;99.90;;;;;;5071516;28;20427;-75
2022/09/18 10:21:25;;;;;;;;;;;15.20;99.90;;;;;;5072783;28;20007;-74
2022/09/18 10:24:10;;;;;;;;;;;15.20;99.90;;;;;;5073506;28;19931;-74
2022/09/18 10:26:39;;;;;;;;;;;15.10;99.90;;;;;;5072458;28;20116;-74
2022/09/18 10:29:05;;;;;;;;;;;15.10;99.90;;;;;;5073229;28;20001;-74
2022/09/18 10:31:51;;;;;;;;;;;15.20;99.90;;;;;;5071330;28;19943;-74
2022/09/18 10:34:44;;;;;;;;;;;15.20;99.90;;;;;;5072568;28;20292;-75
2022/09/18 10:37:14;;;;;;;;;;;15.30;99.90;;;;;;5071123;28;19991;-75
2022/09/18 10:39:52;;;;;;;;;;;15.30;99.90;;;;;;5072708;28;19997;-75
2022/09/18 10:42:20;;;;;;;;;;;15.20;99.90;;;;;;5072866;28;19934;-74
2022/09/18 10:44:53;;;;;;;;;;;15.30;99.90;;;;;;5072930;28;19924;-75
2022/09/18 10:47:21;;;;;;;;;;;15.30;99.90;;;;;;5072637;28;19915;-75
2022/09/18 10:49:47;;;;;;;;;;;15.40;99.90;;;;;;5072735;28;20387;-74
2022/09/18 10:52:25;;;;;;;;;;;15.40;99.90;;;;;;5073105;28;19909;-74
2022/09/18 10:54:58;;;;;;;;;;;15.50;99.90;;;;;;5071010;28;20308;-74
2022/09/18 10:57:29;;;;;;;;;;;15.50;99.90;;;;;;5072512;28;19912;-75
2022/09/18 10:59:54;;;;;;;;;;;15.50;99.90;;;;;;5073091;28;19908;-74
2022/09/18 11:02:23;;;;;;;;;;;15.60;99.90;;;;;;5072536;28;19999;-74
2022/09/18 11:04:49;;;;;;;;;;;15.60;99.90;;;;;;5072875;28;19915;-74
2022/09/18 11:07:16;;;;;;;;;;;15.60;99.90;;;;;;5072670;28;19908;-74
2022/09/18 11:09:42;;;;;;;;;;;15.70;99.90;;;;;;5071950;28;19909;-74
2022/09/18 11:12:18;;;;;;;;;;;15.70;99.90;;;;;;5071444;28;19915;-74
2022/09/18 11:14:46;;;;;;;;;;;15.80;99.90;;;;;;5072307;28;19912;-74
2022/09/18 11:17:41;;;;;;;;;;;15.80;99.90;;;;;;5072786;28;19912;-74
2022/09/18 11:20:18;;;;;;;;;;;15.80;99.90;;;;;;5063479;28;19930;-74
2022/09/18 11:22:44;;;;;;;;;;;15.80;99.90;;;;;;5071967;28;19908;-74
2022/09/18 11:25:13;;;;;;;;;;;15.80;99.90;;;;;;5072275;28;19954;-75
2022/09/18 11:27:43;;;;;;;;;;;15.80;99.90;;;;;;5072028;28;20367;-76
2022/09/18 11:30:34;;;;;;;;;;;15.90;99.90;;;;;;5072533;28;20338;-74
2022/09/18 11:33:14;;;;;;;;;;;15.90;99.90;;;;;;5070364;28;19914;-74
2022/09/18 11:35:44;;;;;;;;;;;16.00;99.90;;;;;;5071888;28;19913;-74
2022/09/18 11:38:14;;;;;;;;;;;16.10;99.90;;;;;;5072227;28;19920;-75
2022/09/18 11:40:44;;;;;;;;;;;16.20;99.90;;;;;;5071776;28;19931;-75
2022/09/18 11:43:14;;;;;;;;;;;16.30;99.90;;;;;;5072433;28;19916;-75
2022/09/18 11:45:50;;;;;;;;;;;16.30;99.90;;;;;;5071865;28;20251;-75
2022/09/18 11:48:24;;;;;;;;;;;16.20;99.90;;;;;;5075974;28;19912;-75
2022/09/18 11:50:53;;;;;;;;;;;16.30;99.90;;;;;;5076432;28;19998;-75
2022/09/18 11:53:23;;;;;;;;;;;16.30;99.90;;;;;;5076167;28;19934;-75
2022/09/18 11:55:57;;;;;;;;;;;16.40;99.90;;;;;;5076125;28;19924;-75
2022/09/18 11:58:35;;;;;;;;;;;16.40;99.90;;;;;;5075911;28;20273;-75
2022/09/18 12:01:12;;;;;;;;;;;16.40;99.90;;;;;;5076261;28;20004;-75
2022/09/18 12:03:48;;;;;;;;;;;16.40;99.90;;;;;;5075566;28;19932;-75
2022/09/18 12:06:32;;;;;;;;;;;16.50;99.90;;;;;;5076523;28;19909;-75
2022/09/18 12:09:10;;;;;;;;;;;16.60;99.90;;;;;;5076000;28;19935;-75
2022/09/18 12:11:40;;;;;;;;;;;16.70;99.90;;;;;;5075738;28;19919;-75
2022/09/18 12:14:12;;;;;;;;;;;16.70;99.90;;;;;;5075745;28;20377;-75
2022/09/18 12:16:38;;;;;;;;;;;16.70;99.90;;;;;;5073731;28;19913;-76
2022/09/18 12:19:14;;;;;;;;;;;16.80;99.90;;;;;;5075804;28;19908;-75
2022/09/18 12:21:47;;;;;;;;;;;16.90;99.90;;;;;;5075206;28;19909;-73
2022/09/18 12:24:14;;;;;;;;;;;17.10;99.90;;;;;;5075883;28;19916;-75
2022/09/18 12:26:53;;;;;;;;;;;17.10;99.90;;;;;;5074939;28;20378;-76
2022/09/18 12:29:28;;;;;;;;;;;17.00;99.90;;;;;;5075877;28;19909;-75
2022/09/18 12:31:57;;;;;;;;;;;17.00;99.90;;;;;;5075727;28;20032;-75
2022/09/18 12:34:47;;;;;;;;;;;17.00;99.90;;;;;;5075501;28;20038;-75
2022/09/18 12:37:16;;;;;;;;;;;17.00;99.90;;;;;;5069886;28;19916;-75
2022/09/18 12:40:00;;;;;;;;;;;17.00;99.90;;;;;;5073352;28;19912;-74
2022/09/18 12:42:38;;;;;;;;;;;17.00;99.90;;;;;;5075016;28;19916;-74
2022/09/18 12:45:06;;;;;;;;;;;16.90;99.90;;;;;;5075426;28;19920;-74
2022/09/18 12:47:32;;;;;;;;;;;16.80;99.90;;;;;;5074822;28;19908;-75
2022/09/18 12:50:12;;;;;;;;;;;16.90;99.90;;;;;;5075219;28;20347;-76
2022/09/18 12:53:01;;;;;;;;;;;17.00;99.90;;;;;;5074922;28;19915;-75
2022/09/18 12:55:27;;;;;;;;;;;17.10;99.90;;;;;;5069223;28;19913;-75
2022/09/18 12:58:11;;;;;;;;;;;17.10;99.90;;;;;;5074420;28;19912;-76
2022/09/18 13:00:37;;;;;;;;;;;17.00;99.90;;;;;;5073392;28;20281;-76
2022/09/18 13:03:19;;;;;;;;;;;16.90;99.90;;;;;;5075275;28;19916;-76
2022/09/18 13:05:52;;;;;;;;;;;16.90;99.90;;;;;;5075243;28;19915;-75
2022/09/18 13:08:17;;;;;;;;;;;16.90;99.90;;;;;;5075036;28;20016;-75
2022/09/18 13:10:44;;;;;;;;;;;16.90;99.90;;;;;;5074396;28;19947;-75
2022/09/18 13:13:16;;;;;;;;;;;16.90;99.90;;;;;;5074979;28;19916;-76
2022/09/18 13:15:44;;;;;;;;;;;16.80;99.90;;;;;;5073189;28;19912;-76
2022/09/18 13:18:21;;;;;;;;;;;16.80;99.90;;;;;;5075374;28;19913;-75
2022/09/18 13:20:47;;;;;;;;;;;16.90;99.90;;;;;;5074374;28;20038;-75
2022/09/18 13:23:21;;;;;;;;;;;17.00;99.90;;;;;;5074904;28;19999;-76
2022/09/18 13:25:49;;;;;;;;;;;17.00;99.90;;;;;;5072752;28;19909;-76
2022/09/18 13:28:16;;;;;;;;;;;17.00;99.90;;;;;;5074479;28;19916;-74
2022/09/18 13:30:42;;;;;;;;;;;17.00;99.90;;;;;;5073598;28;19915;-74
2022/09/18 13:33:20;;;;;;;;;;;17.00;99.90;;;;;;5074435;28;19931;-75
2022/09/18 13:35:49;;;;;;;;;;;17.00;99.90;;;;;;5073672;28;20364;-75
2022/09/18 13:38:17;;;;;;;;;;;17.10;99.90;;;;;;5073036;28;19913;-75
2022/09/18 13:40:47;;;;;;;;;;;17.20;99.90;;;;;;5073579;28;19977;-75
2022/09/18 13:43:16;;;;;;;;;;;17.20;99.90;;;;;;5073166;28;19916;-75
2022/09/18 13:45:41;;;;;;;;;;;17.30;99.90;;;;;;5072118;28;19943;-74
2022/09/18 13:48:17;;;;;;;;;;;17.20;99.90;;;;;;5073968;28;19908;-74
2022/09/18 13:50:56;;;;;;;;;;;17.20;99.90;;;;;;5073058;28;20473;-74
2022/09/18 13:53:31;;;;;;;;;;;17.20;99.90;;;;;;5074247;28;20345;-75
2022/09/18 13:55:57;;;;;;;;;;;17.20;99.90;;;;;;5073918;28;19923;-75
2022/09/18 13:58:34;;;;;;;;;;;17.30;99.90;;;;;;5073957;28;20277;-75
2022/09/18 14:01:07;;;;;;;;;;;17.40;99.90;;;;;;5073716;28;19908;-74
2022/09/18 14:03:37;;;;;;;;;;;17.40;99.90;;;;;;5073427;28;20361;-74
2022/09/18 14:06:35;;;;;;;;;;;17.50;99.90;;;;;;5073922;28;19998;-75
2022/09/18 14:09:01;;;;;;;;;;;17.40;99.90;;;;;;5050587;28;19909;-75
2022/09/18 14:11:27;;;;;;;;;;;17.40;99.90;;;;;;5073473;28;20349;-75
2022/09/18 14:13:54;;;;;;;;;;;17.40;99.90;;;;;;5072736;28;19919;-74
2022/09/18 14:16:22;;;;;;;;;;;17.40;99.90;;;;;;5073228;28;20361;-75
2022/09/18 14:18:48;;;;;;;;;;;17.40;99.90;;;;;;5072840;28;19962;-74
2022/09/18 14:21:16;;;;;;;;;;;17.40;99.90;;;;;;5073503;28;19912;-74
2022/09/18 14:23:45;;;;;;;;;;;17.40;99.90;;;;;;5072834;28;19915;-74
2022/09/18 14:28:59;;;;;;;;;;;17.50;99.90;;;;;;5071973;28;19966;-75
2022/09/18 14:31:26;;;;;;;;;;;17.50;99.90;;;;;;5073059;28;19915;-75
2022/09/18 14:33:53;;;;;;;;;;;17.50;99.90;;;;;;5072778;28;19978;-75